sensor_id;sensor_type;location;lat;lon;timestamp;temperature;humidity
27848;DHT22;15212;48.830;8.730;2023-02-15T00:00:16;2.20;99.90
27848;DHT22;15212;48.830;8.730;2023-02-15T00:02:45;2.20;99.90
27848;DHT22;15212;48.830;8.730;2023-02-15T00:05:13;2.10;99.90
27848;DHT22;15212;48.830;8.730;2023-02-15T00:07:42;2.10;99.90
27848;DHT22;15212;48.830;8.730;2023-02-15T00:10:10;2.00;99.90
27848;DHT22;15212;48.830;8.730;2023-02-15T00:12:38;2.00;99.90
27848;DHT22;15212;48.830;8.730;2023-02-15T00:15:07;2.00;99.90
27848;DHT22;15212;48.830;8.730;2023-02-15T00:17:35;2.00;99.90
27848;DHT22;15212;48.830;8.730;2023-02-15T00:20:05;2.00;99.90
27848;DHT22;15212;48.830;8.730;2023-02-15T00:22:33;1.90;99.90
27848;DHT22;15212;48.830;8.730;2023-02-15T00:25:02;1.90;99.90
27848;DHT22;15212;48.830;8.730;2023-02-15T00:27:30;1.80;99.90
27848;DHT22;15212;48.830;8.730;2023-02-15T00:30:00;1.70;99.90
27848;DHT22;15212;48.830;8.730;2023-02-15T00:32:29;1.70;99.90
27848;DHT22;15212;48.830;8.730;2023-02-15T00:34:57;1.70;99.90
27848;DHT22;15212;48.830;8.730;2023-02-15T00:37:26;1.60;99.90
27848;DHT22;15212;48.830;8.730;2023-02-15T00:39:54;1.60;99.90
27848;DHT22;15212;48.830;8.730;2023-02-15T00:42:23;1.60;99.90
27848;DHT22;15212;48.830;8.730;2023-02-15T00:44:51;1.60;99.90
27848;DHT22;15212;48.830;8.730;2023-02-15T00:47:20;1.50;99.90
27848;DHT22;15212;48.830;8.730;2023-02-15T00:49:48;1.50;99.90
27848;DHT22;15212;48.830;8.730;2023-02-15T00:52:16;1.50;99.90
27848;DHT22;15212;48.830;8.730;2023-02-15T00:54:45;1.50;99.90
27848;DHT22;15212;48.830;8.730;2023-02-15T00:57:13;1.40;99.90
27848;DHT22;15212;48.830;8.730;2023-02-15T00:59:41;1.40;99.90
27848;DHT22;15212;48.830;8.730;2023-02-15T01:02:10;1.30;99.90
27848;DHT22;15212;48.830;8.730;2023-02-15T01:04:38;1.20;99.90
27848;DHT22;15212;48.830;8.730;2023-02-15T01:07:06;1.10;99.90
27848;DHT22;15212;48.830;8.730;2023-02-15T01:09:35;1.10;99.90
27848;DHT22;15212;48.830;8.730;2023-02-15T01:12:03;1.00;99.90
27848;DHT22;15212;48.830;8.730;2023-02-15T01:14:32;1.00;99.90
27848;DHT22;15212;48.830;8.730;2023-02-15T01:17:00;0.90;99.90
27848;DHT22;15212;48.830;8.730;2023-02-15T01:19:28;0.90;99.90
27848;DHT22;15212;48.830;8.730;2023-02-15T01:21:57;0.90;99.90
27848;DHT22;15212;48.830;8.730;2023-02-15T01:24:25;0.90;99.90
27848;DHT22;15212;48.830;8.730;2023-02-15T01:26:54;0.90;99.90
27848;DHT22;15212;48.830;8.730;2023-02-15T01:29:22;0.90;99.90
27848;DHT22;15212;48.830;8.730;2023-02-15T01:31:50;0.80;99.90
27848;DHT22;15212;48.830;8.730;2023-02-15T01:34:19;0.80;99.90
27848;DHT22;15212;48.830;8.730;2023-02-15T01:36:47;0.80;99.90
27848;DHT22;15212;48.830;8.730;2023-02-15T01:39:15;0.80;99.90
27848;DHT22;15212;48.830;8.730;2023-02-15T01:41:44;0.80;99.90
27848;DHT22;15212;48.830;8.730;2023-02-15T01:44:54;0.80;99.90
27848;DHT22;15212;48.830;8.730;2023-02-15T01:47:32;0.80;99.90
27848;DHT22;15212;48.830;8.730;2023-02-15T01:50:03;0.80;99.90
27848;DHT22;15212;48.830;8.730;2023-02-15T01:52:30;0.80;99.90
27848;DHT22;15212;48.830;8.730;2023-02-15T01:54:58;0.80;99.90
27848;DHT22;15212;48.830;8.730;2023-02-15T01:57:28;0.80;99.90
27848;DHT22;15212;48.830;8.730;2023-02-15T01:59:59;0.80;99.90
27848;DHT22;15212;48.830;8.730;2023-02-15T02:02:30;0.80;99.90
27848;DHT22;15212;48.830;8.730;2023-02-15T02:05:01;0.70;99.90
27848;DHT22;15212;48.830;8.730;2023-02-15T02:07:35;0.70;99.90
27848;DHT22;15212;48.830;8.730;2023-02-15T02:10:10;0.60;99.90
27848;DHT22;15212;48.830;8.730;2023-02-15T02:12:42;0.60;99.90
27848;DHT22;15212;48.830;8.730;2023-02-15T02:15:11;0.50;99.90
27848;DHT22;15212;48.830;8.730;2023-02-15T02:17:56;0.50;99.90
27848;DHT22;15212;48.830;8.730;2023-02-15T02:20:52;0.40;99.90
27848;DHT22;15212;48.830;8.730;2023-02-15T02:23:49;0.40;99.90
27848;DHT22;15212;48.830;8.730;2023-02-15T02:26:32;0.30;99.90
27848;DHT22;15212;48.830;8.730;2023-02-15T02:29:15;0.30;99.90
27848;DHT22;15212;48.830;8.730;2023-02-15T02:32:20;0.40;99.90
27848;DHT22;15212;48.830;8.730;2023-02-15T02:35:01;0.30;99.90
27848;DHT22;15212;48.830;8.730;2023-02-15T02:38:14;0.30;99.90
27848;DHT22;15212;48.830;8.730;2023-02-15T02:41:48;0.30;99.90
27848;DHT22;15212;48.830;8.730;2023-02-15T02:43:51;0.20;99.90
27848;DHT22;15212;48.830;8.730;2023-02-15T02:46:28;0.20;99.90
27848;DHT22;15212;48.830;8.730;2023-02-15T02:48:58;0.10;99.90
27848;DHT22;15212;48.830;8.730;2023-02-15T02:51:26;0.10;99.90
27848;DHT22;15212;48.830;8.730;2023-02-15T02:53:57;0.00;99.90
27848;DHT22;15212;48.830;8.730;2023-02-15T02:56:44;-0.10;99.90
27848;DHT22;15212;48.830;8.730;2023-02-15T02:59:20;0.00;99.90
27848;DHT22;15212;48.830;8.730;2023-02-15T03:01:54;0.00;99.90
27848;DHT22;15212;48.830;8.730;2023-02-15T03:04:32;0.00;99.90
27848;DHT22;15212;48.830;8.730;2023-02-15T03:07:13;-0.10;99.90
27848;DHT22;15212;48.830;8.730;2023-02-15T03:09:56;-0.10;99.90
27848;DHT22;15212;48.830;8.730;2023-02-15T03:12:28;-0.10;99.90
27848;DHT22;15212;48.830;8.730;2023-02-15T03:17:46;0.00;99.90
27848;DHT22;15212;48.830;8.730;2023-02-15T03:20:24;0.10;99.90
27848;DHT22;15212;48.830;8.730;2023-02-15T03:23:09;0.10;99.90
27848;DHT22;15212;48.830;8.730;2023-02-15T03:25:39;0.10;99.90
27848;DHT22;15212;48.830;8.730;2023-02-15T03:28:19;0.10;99.90
27848;DHT22;15212;48.830;8.730;2023-02-15T03:30:48;0.00;99.90
27848;DHT22;15212;48.830;8.730;2023-02-15T03:33:19;0.00;99.90
27848;DHT22;15212;48.830;8.730;2023-02-15T03:36:00;-0.10;99.90
27848;DHT22;15212;48.830;8.730;2023-02-15T03:38:43;-0.10;99.90
27848;DHT22;15212;48.830;8.730;2023-02-15T03:41:14;0.00;99.90
27848;DHT22;15212;48.830;8.730;2023-02-15T03:43:52;0.00;99.90
27848;DHT22;15212;48.830;8.730;2023-02-15T03:49:38;0.10;99.90
27848;DHT22;15212;48.830;8.730;2023-02-15T03:52:02;0.20;99.90
27848;DHT22;15212;48.830;8.730;2023-02-15T03:54:33;0.20;99.90
27848;DHT22;15212;48.830;8.730;2023-02-15T03:57:18;0.20;99.90
27848;DHT22;15212;48.830;8.730;2023-02-15T04:00:19;0.20;99.90
27848;DHT22;15212;48.830;8.730;2023-02-15T04:03:26;0.20;99.90
27848;DHT22;15212;48.830;8.730;2023-02-15T04:06:02;0.10;99.90
27848;DHT22;15212;48.830;8.730;2023-02-15T04:08:31;0.10;99.90
27848;DHT22;15212;48.830;8.730;2023-02-15T04:11:17;0.20;99.90
27848;DHT22;15212;48.830;8.730;2023-02-15T04:13:45;0.20;99.90
27848;DHT22;15212;48.830;8.730;2023-02-15T04:16:14;0.10;99.90
27848;DHT22;15212;48.830;8.730;2023-02-15T04:18:43;0.10;99.90
27848;DHT22;15212;48.830;8.730;2023-02-15T04:21:30;0.10;99.90
27848;DHT22;15212;48.830;8.730;2023-02-15T04:24:16;0.10;99.90
27848;DHT22;15212;48.830;8.730;2023-02-15T04:27:03;0.10;99.90
27848;DHT22;15212;48.830;8.730;2023-02-15T04:29:32;0.20;99.90
27848;DHT22;15212;48.830;8.730;2023-02-15T04:32:01;0.20;99.90
27848;DHT22;15212;48.830;8.730;2023-02-15T04:34:30;0.20;99.90
27848;DHT22;15212;48.830;8.730;2023-02-15T04:36:58;0.20;99.90
27848;DHT22;15212;48.830;8.730;2023-02-15T04:39:26;0.20;99.90
27848;DHT22;15212;48.830;8.730;2023-02-15T04:41:55;0.20;99.90
27848;DHT22;15212;48.830;8.730;2023-02-15T04:44:23;0.20;99.90
27848;DHT22;15212;48.830;8.730;2023-02-15T04:46:51;0.20;99.90
27848;DHT22;15212;48.830;8.730;2023-02-15T04:49:21;0.20;99.90
27848;DHT22;15212;48.830;8.730;2023-02-15T04:51:49;0.20;99.90
27848;DHT22;15212;48.830;8.730;2023-02-15T04:54:17;0.20;99.90
27848;DHT22;15212;48.830;8.730;2023-02-15T04:56:46;0.20;99.90
27848;DHT22;15212;48.830;8.730;2023-02-15T04:59:14;0.20;99.90
27848;DHT22;15212;48.830;8.730;2023-02-15T05:01:43;0.20;99.90
27848;DHT22;15212;48.830;8.730;2023-02-15T05:04:11;0.20;99.90
27848;DHT22;15212;48.830;8.730;2023-02-15T05:06:40;0.10;99.90
27848;DHT22;15212;48.830;8.730;2023-02-15T05:09:08;0.20;99.90
27848;DHT22;15212;48.830;8.730;2023-02-15T05:11:38;0.10;99.90
27848;DHT22;15212;48.830;8.730;2023-02-15T05:14:06;0.10;99.90
27848;DHT22;15212;48.830;8.730;2023-02-15T05:16:35;0.10;99.90
27848;DHT22;15212;48.830;8.730;2023-02-15T05:19:03;0.10;99.90
27848;DHT22;15212;48.830;8.730;2023-02-15T05:21:32;0.00;99.90
27848;DHT22;15212;48.830;8.730;2023-02-15T05:24:01;-0.10;99.90
27848;DHT22;15212;48.830;8.730;2023-02-15T05:26:31;-0.10;99.90
27848;DHT22;15212;48.830;8.730;2023-02-15T05:29:17;-0.10;99.90
27848;DHT22;15212;48.830;8.730;2023-02-15T05:31:46;-0.10;99.90
27848;DHT22;15212;48.830;8.730;2023-02-15T05:34:14;-0.10;99.90
27848;DHT22;15212;48.830;8.730;2023-02-15T05:36:42;-0.20;99.90
27848;DHT22;15212;48.830;8.730;2023-02-15T05:39:11;-0.30;99.90
27848;DHT22;15212;48.830;8.730;2023-02-15T05:41:39;-0.40;99.90
27848;DHT22;15212;48.830;8.730;2023-02-15T05:44:07;-0.50;99.90
27848;DHT22;15212;48.830;8.730;2023-02-15T05:46:36;-0.40;99.90
27848;DHT22;15212;48.830;8.730;2023-02-15T05:49:04;-0.40;99.90
27848;DHT22;15212;48.830;8.730;2023-02-15T05:51:33;-0.30;99.90
27848;DHT22;15212;48.830;8.730;2023-02-15T05:54:01;-0.40;99.90
27848;DHT22;15212;48.830;8.730;2023-02-15T05:56:29;-0.30;99.90
27848;DHT22;15212;48.830;8.730;2023-02-15T05:58:58;-0.30;99.90
27848;DHT22;15212;48.830;8.730;2023-02-15T06:01:26;-0.30;99.90
27848;DHT22;15212;48.830;8.730;2023-02-15T06:03:54;-0.20;99.90
27848;DHT22;15212;48.830;8.730;2023-02-15T06:06:23;-0.30;99.90
27848;DHT22;15212;48.830;8.730;2023-02-15T06:08:51;-0.30;99.90
27848;DHT22;15212;48.830;8.730;2023-02-15T06:11:19;-0.20;99.90
27848;DHT22;15212;48.830;8.730;2023-02-15T06:13:48;-0.20;99.90
27848;DHT22;15212;48.830;8.730;2023-02-15T06:16:16;-0.20;99.90
27848;DHT22;15212;48.830;8.730;2023-02-15T06:18:45;-0.20;99.90
27848;DHT22;15212;48.830;8.730;2023-02-15T06:21:13;-0.20;99.90
27848;DHT22;15212;48.830;8.730;2023-02-15T06:23:41;-0.30;99.90
27848;DHT22;15212;48.830;8.730;2023-02-15T06:26:10;-0.30;99.90
27848;DHT22;15212;48.830;8.730;2023-02-15T06:28:38;-0.30;99.90
27848;DHT22;15212;48.830;8.730;2023-02-15T06:31:07;-0.30;99.90
27848;DHT22;15212;48.830;8.730;2023-02-15T06:33:36;-0.30;99.90
27848;DHT22;15212;48.830;8.730;2023-02-15T06:36:05;-0.30;99.90
27848;DHT22;15212;48.830;8.730;2023-02-15T06:38:33;-0.20;99.90
27848;DHT22;15212;48.830;8.730;2023-02-15T06:41:02;-0.20;99.90
27848;DHT22;15212;48.830;8.730;2023-02-15T06:43:30;-0.20;99.90
27848;DHT22;15212;48.830;8.730;2023-02-15T06:46:00;-0.10;99.90
27848;DHT22;15212;48.830;8.730;2023-02-15T06:48:28;-0.10;99.90
27848;DHT22;15212;48.830;8.730;2023-02-15T06:50:57;-0.10;99.90
27848;DHT22;15212;48.830;8.730;2023-02-15T06:53:25;-0.10;99.90
27848;DHT22;15212;48.830;8.730;2023-02-15T06:56:07;-0.10;99.90
27848;DHT22;15212;48.830;8.730;2023-02-15T06:58:33;-0.10;99.90
27848;DHT22;15212;48.830;8.730;2023-02-15T07:01:03;-0.10;99.90
27848;DHT22;15212;48.830;8.730;2023-02-15T07:03:33;-0.10;99.90
27848;DHT22;15212;48.830;8.730;2023-02-15T07:06:03;-0.10;99.90
27848;DHT22;15212;48.830;8.730;2023-02-15T07:08:35;0.00;99.90
27848;DHT22;15212;48.830;8.730;2023-02-15T07:11:04;0.00;99.90
27848;DHT22;15212;48.830;8.730;2023-02-15T07:13:51;0.00;99.90
27848;DHT22;15212;48.830;8.730;2023-02-15T07:16:20;0.00;99.90
27848;DHT22;15212;48.830;8.730;2023-02-15T07:18:48;0.10;99.90
27848;DHT22;15212;48.830;8.730;2023-02-15T07:21:16;0.10;99.90
27848;DHT22;15212;48.830;8.730;2023-02-15T07:23:45;0.10;99.90
27848;DHT22;15212;48.830;8.730;2023-02-15T07:26:13;0.20;99.90
27848;DHT22;15212;48.830;8.730;2023-02-15T07:28:41;0.30;99.90
27848;DHT22;15212;48.830;8.730;2023-02-15T07:31:10;0.30;99.90
27848;DHT22;15212;48.830;8.730;2023-02-15T07:33:39;0.40;99.90
27848;DHT22;15212;48.830;8.730;2023-02-15T07:36:08;0.50;99.90
27848;DHT22;15212;48.830;8.730;2023-02-15T07:38:40;0.60;99.90
27848;DHT22;15212;48.830;8.730;2023-02-15T07:41:11;0.60;99.90
27848;DHT22;15212;48.830;8.730;2023-02-15T07:43:42;0.70;99.90
27848;DHT22;15212;48.830;8.730;2023-02-15T07:46:13;0.80;99.90
27848;DHT22;15212;48.830;8.730;2023-02-15T07:48:43;1.00;99.90
27848;DHT22;15212;48.830;8.730;2023-02-15T07:51:12;1.10;99.90
27848;DHT22;15212;48.830;8.730;2023-02-15T07:53:42;1.20;99.90
27848;DHT22;15212;48.830;8.730;2023-02-15T07:56:12;1.30;99.90
27848;DHT22;15212;48.830;8.730;2023-02-15T07:58:41;1.40;99.90
27848;DHT22;15212;48.830;8.730;2023-02-15T08:01:21;1.60;99.90
27848;DHT22;15212;48.830;8.730;2023-02-15T08:03:55;1.80;99.90
27848;DHT22;15212;48.830;8.730;2023-02-15T08:06:26;2.00;99.90
27848;DHT22;15212;48.830;8.730;2023-02-15T08:08:55;2.00;99.90
27848;DHT22;15212;48.830;8.730;2023-02-15T08:11:25;2.10;99.90
27848;DHT22;15212;48.830;8.730;2023-02-15T08:14:10;2.20;99.90
27848;DHT22;15212;48.830;8.730;2023-02-15T08:16:45;2.20;99.90
27848;DHT22;15212;48.830;8.730;2023-02-15T08:19:25;2.30;99.90
27848;DHT22;15212;48.830;8.730;2023-02-15T08:22:05;2.40;99.90
27848;DHT22;15212;48.830;8.730;2023-02-15T08:24:36;2.50;99.90
27848;DHT22;15212;48.830;8.730;2023-02-15T08:27:06;2.60;99.90
27848;DHT22;15212;48.830;8.730;2023-02-15T08:29:37;2.70;99.90
27848;DHT22;15212;48.830;8.730;2023-02-15T08:32:07;2.80;99.90
27848;DHT22;15212;48.830;8.730;2023-02-15T08:34:39;2.90;99.90
27848;DHT22;15212;48.830;8.730;2023-02-15T08:37:08;3.10;99.90
27848;DHT22;15212;48.830;8.730;2023-02-15T08:39:37;3.30;99.90
27848;DHT22;15212;48.830;8.730;2023-02-15T08:42:05;3.40;99.90
27848;DHT22;15212;48.830;8.730;2023-02-15T08:44:33;3.60;99.90
27848;DHT22;15212;48.830;8.730;2023-02-15T08:47:02;3.70;99.90
27848;DHT22;15212;48.830;8.730;2023-02-15T08:49:30;3.80;99.90
27848;DHT22;15212;48.830;8.730;2023-02-15T08:51:59;4.00;99.90
27848;DHT22;15212;48.830;8.730;2023-02-15T08:54:27;4.10;99.90
27848;DHT22;15212;48.830;8.730;2023-02-15T08:56:56;4.20;99.90
27848;DHT22;15212;48.830;8.730;2023-02-15T08:59:25;4.30;99.90
27848;DHT22;15212;48.830;8.730;2023-02-15T09:01:54;4.50;99.90
27848;DHT22;15212;48.830;8.730;2023-02-15T09:04:22;4.50;99.90
27848;DHT22;15212;48.830;8.730;2023-02-15T09:06:51;4.70;99.90
27848;DHT22;15212;48.830;8.730;2023-02-15T09:09:20;4.80;99.90
27848;DHT22;15212;48.830;8.730;2023-02-15T09:11:50;4.90;99.90
27848;DHT22;15212;48.830;8.730;2023-02-15T09:14:20;5.00;99.90
27848;DHT22;15212;48.830;8.730;2023-02-15T09:16:52;5.10;99.90
27848;DHT22;15212;48.830;8.730;2023-02-15T09:19:22;5.20;99.90
27848;DHT22;15212;48.830;8.730;2023-02-15T09:21:51;5.40;99.90
27848;DHT22;15212;48.830;8.730;2023-02-15T09:24:19;5.50;99.90
27848;DHT22;15212;48.830;8.730;2023-02-15T09:26:48;5.60;99.90
27848;DHT22;15212;48.830;8.730;2023-02-15T09:29:18;5.70;99.90
27848;DHT22;15212;48.830;8.730;2023-02-15T09:31:49;5.90;99.90
27848;DHT22;15212;48.830;8.730;2023-02-15T09:34:21;6.00;99.90
27848;DHT22;15212;48.830;8.730;2023-02-15T09:36:50;6.10;99.90
27848;DHT22;15212;48.830;8.730;2023-02-15T09:39:22;6.20;99.90
27848;DHT22;15212;48.830;8.730;2023-02-15T09:45:12;6.40;99.90
27848;DHT22;15212;48.830;8.730;2023-02-15T09:53:29;6.80;99.90
27848;DHT22;15212;48.830;8.730;2023-02-15T09:56:14;6.90;99.90
27848;DHT22;15212;48.830;8.730;2023-02-15T10:14:15;7.60;99.90
27848;DHT22;15212;48.830;8.730;2023-02-15T10:31:50;8.20;99.90
27848;DHT22;15212;48.830;8.730;2023-02-15T10:34:38;8.30;99.90
27848;DHT22;15212;48.830;8.730;2023-02-15T10:46:08;8.70;99.90
27848;DHT22;15212;48.830;8.730;2023-02-15T10:48:59;8.80;99.90
27848;DHT22;15212;48.830;8.730;2023-02-15T10:52:02;8.90;99.90
27848;DHT22;15212;48.830;8.730;2023-02-15T10:54:48;9.10;99.90
27848;DHT22;15212;48.830;8.730;2023-02-15T10:57:33;9.20;99.90
27848;DHT22;15212;48.830;8.730;2023-02-15T11:00:25;9.30;99.90
27848;DHT22;15212;48.830;8.730;2023-02-15T11:03:06;9.20;99.90
27848;DHT22;15212;48.830;8.730;2023-02-15T11:05:45;9.20;99.90
27848;DHT22;15212;48.830;8.730;2023-02-15T11:08:34;9.30;99.90
27848;DHT22;15212;48.830;8.730;2023-02-15T11:11:08;9.50;99.90
27848;DHT22;15212;48.830;8.730;2023-02-15T11:13:44;9.60;99.90
27848;DHT22;15212;48.830;8.730;2023-02-15T11:16:20;9.50;99.90
27848;DHT22;15212;48.830;8.730;2023-02-15T11:18:54;9.60;99.90
27848;DHT22;15212;48.830;8.730;2023-02-15T11:21:36;9.80;99.90
27848;DHT22;15212;48.830;8.730;2023-02-15T11:24:11;9.90;99.90
27848;DHT22;15212;48.830;8.730;2023-02-15T11:26:48;10.00;99.90
27848;DHT22;15212;48.830;8.730;2023-02-15T11:29:26;9.90;99.90
27848;DHT22;15212;48.830;8.730;2023-02-15T11:32:23;9.80;99.90
27848;DHT22;15212;48.830;8.730;2023-02-15T11:34:56;9.70;99.90
27848;DHT22;15212;48.830;8.730;2023-02-15T11:37:42;9.60;99.90
27848;DHT22;15212;48.830;8.730;2023-02-15T11:40:25;9.60;99.90
27848;DHT22;15212;48.830;8.730;2023-02-15T11:43:06;9.50;99.90
27848;DHT22;15212;48.830;8.730;2023-02-15T11:45:36;9.40;99.90
27848;DHT22;15212;48.830;8.730;2023-02-15T11:48:12;9.40;99.90
27848;DHT22;15212;48.830;8.730;2023-02-15T11:50:42;9.30;99.90
27848;DHT22;15212;48.830;8.730;2023-02-15T11:53:16;9.40;99.90
27848;DHT22;15212;48.830;8.730;2023-02-15T11:55:48;9.40;99.90
27848;DHT22;15212;48.830;8.730;2023-02-15T11:58:33;9.40;99.90
27848;DHT22;15212;48.830;8.730;2023-02-15T12:01:51;9.50;99.90
27848;DHT22;15212;48.830;8.730;2023-02-15T12:04:20;9.60;99.90
27848;DHT22;15212;48.830;8.730;2023-02-15T12:06:57;9.60;99.90
27848;DHT22;15212;48.830;8.730;2023-02-15T12:10:04;9.60;99.90
27848;DHT22;15212;48.830;8.730;2023-02-15T12:12:47;9.70;99.90
27848;DHT22;15212;48.830;8.730;2023-02-15T12:15:18;9.70;99.90
27848;DHT22;15212;48.830;8.730;2023-02-15T12:17:54;9.80;99.90
27848;DHT22;15212;48.830;8.730;2023-02-15T12:20:33;9.80;99.90
27848;DHT22;15212;48.830;8.730;2023-02-15T12:23:04;9.80;99.90
27848;DHT22;15212;48.830;8.730;2023-02-15T12:25:50;9.90;99.90
27848;DHT22;15212;48.830;8.730;2023-02-15T12:28:32;10.00;99.90
27848;DHT22;15212;48.830;8.730;2023-02-15T12:31:04;10.00;99.90
27848;DHT22;15212;48.830;8.730;2023-02-15T12:33:41;10.10;99.90
27848;DHT22;15212;48.830;8.730;2023-02-15T12:41:36;10.20;99.90
27848;DHT22;15212;48.830;8.730;2023-02-15T12:44:17;10.30;99.90
27848;DHT22;15212;48.830;8.730;2023-02-15T12:47:03;10.40;99.90
27848;DHT22;15212;48.830;8.730;2023-02-15T12:50:07;10.40;99.90
27848;DHT22;15212;48.830;8.730;2023-02-15T12:52:48;10.50;99.90
27848;DHT22;15212;48.830;8.730;2023-02-15T12:55:27;10.60;99.90
27848;DHT22;15212;48.830;8.730;2023-02-15T12:58:17;10.70;99.90
27848;DHT22;15212;48.830;8.730;2023-02-15T13:00:56;10.80;99.90
27848;DHT22;15212;48.830;8.730;2023-02-15T13:04:03;10.80;99.90
27848;DHT22;15212;48.830;8.730;2023-02-15T13:06:18;10.80;99.90
27848;DHT22;15212;48.830;8.730;2023-02-15T13:08:54;10.90;99.90
27848;DHT22;15212;48.830;8.730;2023-02-15T13:11:29;11.00;99.90
27848;DHT22;15212;48.830;8.730;2023-02-15T13:14:01;11.00;99.90
27848;DHT22;15212;48.830;8.730;2023-02-15T13:16:38;11.10;99.90
27848;DHT22;15212;48.830;8.730;2023-02-15T13:19:41;11.10;99.90
27848;DHT22;15212;48.830;8.730;2023-02-15T13:21:56;11.10;99.90
27848;DHT22;15212;48.830;8.730;2023-02-15T13:24:50;11.10;99.90
27848;DHT22;15212;48.830;8.730;2023-02-15T13:27:26;11.00;99.90
27848;DHT22;15212;48.830;8.730;2023-02-15T13:30:30;11.00;99.90
27848;DHT22;15212;48.830;8.730;2023-02-15T13:32:48;11.00;99.90
27848;DHT22;15212;48.830;8.730;2023-02-15T13:35:19;11.00;99.90
27848;DHT22;15212;48.830;8.730;2023-02-15T13:38:16;11.00;99.90
27848;DHT22;15212;48.830;8.730;2023-02-15T13:43:44;11.10;99.90
27848;DHT22;15212;48.830;8.730;2023-02-15T13:47:03;11.10;99.90
27848;DHT22;15212;48.830;8.730;2023-02-15T13:49:18;11.20;99.90
27848;DHT22;15212;48.830;8.730;2023-02-15T13:52:20;11.20;99.90
27848;DHT22;15212;48.830;8.730;2023-02-15T14:06:18;11.40;99.90
27848;DHT22;15212;48.830;8.730;2023-02-15T14:09:30;11.40;99.90
27848;DHT22;15212;48.830;8.730;2023-02-15T14:18:12;11.30;99.90
27848;DHT22;15212;48.830;8.730;2023-02-15T14:21:04;11.20;99.90
27848;DHT22;15212;48.830;8.730;2023-02-15T14:35:02;11.10;99.90
27848;DHT22;15212;48.830;8.730;2023-02-15T14:37:38;11.10;99.90
27848;DHT22;15212;48.830;8.730;2023-02-15T14:43:45;11.10;99.90
27848;DHT22;15212;48.830;8.730;2023-02-15T14:49:40;11.10;99.90
27848;DHT22;15212;48.830;8.730;2023-02-15T14:52:12;11.00;99.90
27848;DHT22;15212;48.830;8.730;2023-02-15T14:59:55;10.90;99.90
27848;DHT22;15212;48.830;8.730;2023-02-15T15:02:47;10.80;99.90
27848;DHT22;15212;48.830;8.730;2023-02-15T15:05:24;10.80;99.90
27848;DHT22;15212;48.830;8.730;2023-02-15T15:08:03;10.70;99.90
27848;DHT22;15212;48.830;8.730;2023-02-15T15:10:40;10.60;99.90
27848;DHT22;15212;48.830;8.730;2023-02-15T15:19:12;10.40;99.90
27848;DHT22;15212;48.830;8.730;2023-02-15T15:41:19;9.70;99.90
27848;DHT22;15212;48.830;8.730;2023-02-15T15:47:21;9.50;99.90
27848;DHT22;15212;48.830;8.730;2023-02-15T15:50:17;9.50;99.90
27848;DHT22;15212;48.830;8.730;2023-02-15T15:52:57;9.40;99.90
27848;DHT22;15212;48.830;8.730;2023-02-15T15:55:25;9.30;99.90
27848;DHT22;15212;48.830;8.730;2023-02-15T15:58:00;9.30;99.90
27848;DHT22;15212;48.830;8.730;2023-02-15T16:00:49;9.10;99.90
27848;DHT22;15212;48.830;8.730;2023-02-15T16:03:47;9.00;99.90
27848;DHT22;15212;48.830;8.730;2023-02-15T16:06:37;8.90;99.90
27848;DHT22;15212;48.830;8.730;2023-02-15T16:08:53;8.90;99.90
27848;DHT22;15212;48.830;8.730;2023-02-15T16:11:27;8.80;99.90
27848;DHT22;15212;48.830;8.730;2023-02-15T16:13:56;8.70;99.90
27848;DHT22;15212;48.830;8.730;2023-02-15T16:16:27;8.60;99.90
27848;DHT22;15212;48.830;8.730;2023-02-15T16:18:57;8.40;99.90
27848;DHT22;15212;48.830;8.730;2023-02-15T16:21:29;8.20;99.90
27848;DHT22;15212;48.830;8.730;2023-02-15T16:29:47;7.60;99.90
27848;DHT22;15212;48.830;8.730;2023-02-15T16:32:21;7.40;99.90
27848;DHT22;15212;48.830;8.730;2023-02-15T16:35:00;7.20;99.90
27848;DHT22;15212;48.830;8.730;2023-02-15T16:37:34;7.00;99.90
27848;DHT22;15212;48.830;8.730;2023-02-15T16:40:03;6.70;99.90
27848;DHT22;15212;48.830;8.730;2023-02-15T16:42:32;6.50;99.90
27848;DHT22;15212;48.830;8.730;2023-02-15T16:45:07;6.40;99.90
27848;DHT22;15212;48.830;8.730;2023-02-15T16:47:40;6.30;99.90
27848;DHT22;15212;48.830;8.730;2023-02-15T16:53:02;6.00;99.90
27848;DHT22;15212;48.830;8.730;2023-02-15T16:55:38;5.80;99.90
27848;DHT22;15212;48.830;8.730;2023-02-15T16:58:13;5.70;99.90
27848;DHT22;15212;48.830;8.730;2023-02-15T17:00:41;5.60;99.90
27848;DHT22;15212;48.830;8.730;2023-02-15T17:05:52;5.60;99.90
27848;DHT22;15212;48.830;8.730;2023-02-15T17:08:36;5.50;99.90
27848;DHT22;15212;48.830;8.730;2023-02-15T17:11:19;5.40;99.90
27848;DHT22;15212;48.830;8.730;2023-02-15T17:17:07;5.30;99.90
27848;DHT22;15212;48.830;8.730;2023-02-15T17:19:50;5.20;99.90
27848;DHT22;15212;48.830;8.730;2023-02-15T17:22:23;5.20;99.90
27848;DHT22;15212;48.830;8.730;2023-02-15T17:25:00;5.10;99.90
27848;DHT22;15212;48.830;8.730;2023-02-15T17:27:31;5.00;99.90
27848;DHT22;15212;48.830;8.730;2023-02-15T17:30:05;4.90;99.90
27848;DHT22;15212;48.830;8.730;2023-02-15T17:32:34;4.80;99.90
27848;DHT22;15212;48.830;8.730;2023-02-15T17:38:06;4.70;99.90
27848;DHT22;15212;48.830;8.730;2023-02-15T17:40:47;4.60;99.90
27848;DHT22;15212;48.830;8.730;2023-02-15T17:43:16;4.40;99.90
27848;DHT22;15212;48.830;8.730;2023-02-15T17:45:48;4.30;99.90
27848;DHT22;15212;48.830;8.730;2023-02-15T17:48:22;4.20;99.90
27848;DHT22;15212;48.830;8.730;2023-02-15T17:50:55;4.10;99.90
27848;DHT22;15212;48.830;8.730;2023-02-15T17:53:24;4.10;99.90
27848;DHT22;15212;48.830;8.730;2023-02-15T17:55:52;4.00;99.90
27848;DHT22;15212;48.830;8.730;2023-02-15T17:58:21;4.00;99.90
27848;DHT22;15212;48.830;8.730;2023-02-15T18:00:52;4.00;99.90
27848;DHT22;15212;48.830;8.730;2023-02-15T18:03:50;4.00;99.90
27848;DHT22;15212;48.830;8.730;2023-02-15T18:06:41;4.00;99.90
27848;DHT22;15212;48.830;8.730;2023-02-15T18:09:27;4.00;99.90
27848;DHT22;15212;48.830;8.730;2023-02-15T18:12:22;3.90;99.90
27848;DHT22;15212;48.830;8.730;2023-02-15T18:14:59;4.00;99.90
27848;DHT22;15212;48.830;8.730;2023-02-15T18:17:34;3.90;99.90
27848;DHT22;15212;48.830;8.730;2023-02-15T18:20:06;3.90;99.90
27848;DHT22;15212;48.830;8.730;2023-02-15T18:22:46;3.90;99.90
27848;DHT22;15212;48.830;8.730;2023-02-15T18:25:16;4.00;99.90
27848;DHT22;15212;48.830;8.730;2023-02-15T18:27:46;4.00;99.90
27848;DHT22;15212;48.830;8.730;2023-02-15T18:30:22;4.00;99.90
27848;DHT22;15212;48.830;8.730;2023-02-15T18:32:55;4.10;99.90
27848;DHT22;15212;48.830;8.730;2023-02-15T18:35:26;4.10;99.90
27848;DHT22;15212;48.830;8.730;2023-02-15T18:37:58;4.10;99.90
27848;DHT22;15212;48.830;8.730;2023-02-15T18:40:28;4.20;99.90
27848;DHT22;15212;48.830;8.730;2023-02-15T18:42:56;4.30;99.90
27848;DHT22;15212;48.830;8.730;2023-02-15T18:45:27;4.50;99.90
27848;DHT22;15212;48.830;8.730;2023-02-15T18:47:57;4.60;99.90
27848;DHT22;15212;48.830;8.730;2023-02-15T18:50:27;4.70;99.90
27848;DHT22;15212;48.830;8.730;2023-02-15T18:52:58;4.80;99.90
27848;DHT22;15212;48.830;8.730;2023-02-15T18:55:27;4.90;99.90
27848;DHT22;15212;48.830;8.730;2023-02-15T18:57:58;5.00;99.90